createdAt,value
2023-05-02T00:00:29.509Z,41.42
2023-05-02T00:02:56.214Z,43.83
2023-05-02T00:05:23.330Z,43.15
2023-05-02T00:07:51.477Z,42.63
2023-05-02T00:10:18.870Z,42.80
2023-05-02T00:12:45.403Z,42.92
2023-05-02T00:15:11.969Z,38.67
2023-05-02T00:17:43.714Z,41.33
2023-05-02T00:20:11.704Z,41.35
2023-05-02T00:22:38.753Z,41.35
2023-05-02T00:25:06.543Z,40.70
2023-05-02T00:27:33.643Z,41.33
2023-05-02T00:30:03.245Z,41.50
2023-05-02T00:32:30.054Z,41.10
2023-05-02T00:34:56.839Z,41.85
2023-05-02T00:37:26.760Z,40.75
2023-05-02T00:39:53.232Z,40.08
2023-05-02T00:42:19.833Z,39.70
2023-05-02T00:44:47.001Z,41.33
2023-05-02T00:47:15.175Z,40.05
2023-05-02T00:49:42.177Z,39.67
2023-05-02T00:52:09.651Z,38.00
2023-05-02T00:54:38.978Z,39.35
2023-05-02T00:57:05.856Z,38.17
2023-05-02T00:59:34.186Z,36.97
2023-05-02T01:02:13.771Z,37.28
2023-05-02T01:04:59.055Z,38.75
2023-05-02T01:07:44.514Z,40.13
2023-05-02T01:10:55.749Z,41.88
2023-05-02T01:13:26.304Z,41.30
2023-05-02T01:15:56.140Z,41.22
2023-05-02T01:18:30.521Z,40.28
2023-05-02T01:21:08.545Z,39.95
2023-05-02T01:24:07.390Z,38.22
2023-05-02T01:26:47.399Z,39.25
2023-05-02T01:29:16.274Z,36.33
2023-05-02T01:31:45.771Z,36.88
2023-05-02T01:34:12.591Z,37.78
2023-05-02T01:36:46.576Z,36.92
2023-05-02T01:39:16.192Z,34.03
2023-05-02T01:41:43.604Z,32.83
2023-05-02T01:44:11.728Z,31.55
2023-05-02T01:46:42.883Z,29.48
2023-05-02T01:49:10.856Z,29.48
2023-05-02T01:51:51.570Z,28.40
2023-05-02T01:54:22.051Z,29.95
2023-05-02T01:56:50.034Z,29.35
2023-05-02T01:59:19.945Z,28.35
2023-05-02T02:01:47.387Z,28.35
2023-05-02T02:04:15.713Z,29.50
2023-05-02T02:06:46.629Z,28.92
2023-05-02T02:09:13.341Z,29.00
2023-05-02T02:11:59.914Z,30.38
2023-05-02T02:14:31.701Z,28.33
2023-05-02T02:17:01.923Z,26.65
2023-05-02T02:19:30.868Z,27.10
2023-05-02T02:21:59.093Z,27.17
2023-05-02T02:24:26.920Z,27.20
2023-05-02T02:26:53.554Z,26.13
2023-05-02T02:29:20.478Z,25.48
2023-05-02T02:31:47.249Z,25.05
2023-05-02T02:34:13.932Z,25.48
2023-05-02T02:36:49.061Z,24.25
2023-05-02T02:39:36.290Z,25.05
2023-05-02T02:42:14.827Z,24.63
2023-05-02T02:44:56.976Z,22.45
2023-05-02T02:48:03.540Z,24.05
2023-05-02T02:58:35.717Z,20.17
2023-05-02T03:01:06.628Z,21.45
2023-05-02T03:03:35.767Z,22.60
2023-05-02T03:06:04.779Z,21.45
2023-05-02T03:08:50.477Z,22.70
2023-05-02T03:11:17.079Z,22.30
2023-05-02T03:13:52.926Z,22.00
2023-05-02T03:17:01.614Z,21.13
2023-05-02T03:20:07.016Z,20.70
2023-05-02T03:22:33.571Z,22.27
2023-05-02T03:25:00.056Z,22.38
2023-05-02T03:30:07.689Z,20.63
2023-05-02T03:33:32.148Z,22.95
2023-05-02T03:57:32.857Z,22.67
2023-05-02T04:04:08.774Z,20.33
2023-05-02T04:06:35.590Z,18.52
2023-05-02T04:09:02.399Z,19.40
2023-05-02T04:11:28.907Z,19.35
2023-05-02T04:13:55.553Z,19.25
2023-05-02T04:16:22.494Z,20.30
2023-05-02T04:18:49.038Z,18.83
2023-05-02T04:21:15.951Z,18.45
2023-05-02T04:23:42.595Z,17.58
2023-05-02T04:26:09.266Z,19.08
2023-05-02T04:28:38.544Z,19.45
2023-05-02T04:31:05.298Z,18.88
2023-05-02T04:33:32.874Z,20.58
2023-05-02T04:35:59.418Z,19.80
2023-05-02T04:38:26.002Z,20.85
2023-05-02T04:40:52.675Z,21.88
2023-05-02T04:43:19.269Z,20.63
2023-05-02T04:45:47.362Z,21.60
2023-05-02T04:48:14.053Z,20.65
2023-05-02T04:50:40.523Z,20.08
2023-05-02T04:53:09.265Z,21.33
2023-05-02T04:55:35.875Z,20.10
2023-05-02T04:58:02.362Z,21.75
2023-05-02T05:00:29.310Z,21.52
2023-05-02T05:02:55.861Z,21.63
2023-05-02T05:05:22.967Z,21.15
2023-05-02T05:07:49.559Z,22.30
2023-05-02T05:10:16.243Z,22.80
2023-05-02T05:12:43.066Z,21.20
2023-05-02T05:15:10.166Z,21.83
2023-05-02T05:17:36.739Z,21.60
2023-05-02T05:20:03.850Z,22.67
2023-05-02T05:22:38.717Z,22.38
2023-05-02T05:25:05.872Z,21.02
2023-05-02T05:27:34.613Z,21.33
2023-05-02T05:30:01.779Z,21.17
2023-05-02T05:32:29.481Z,19.25
2023-05-02T05:34:57.342Z,21.15
2023-05-02T05:37:23.886Z,21.23
2023-05-02T05:39:50.668Z,19.85
2023-05-02T05:42:17.075Z,19.65
2023-05-02T05:44:43.677Z,18.65
2023-05-02T05:47:10.248Z,17.23
2023-05-02T05:49:38.959Z,16.88
2023-05-02T05:52:05.794Z,15.50
2023-05-02T05:54:32.274Z,15.80
2023-05-02T05:57:01.502Z,15.52
2023-05-02T05:59:28.069Z,14.65
2023-05-02T06:01:57.468Z,15.00
2023-05-02T06:04:24.015Z,13.90
2023-05-02T06:06:51.657Z,14.68
2023-05-02T06:09:18.121Z,15.02
2023-05-02T06:11:44.728Z,14.85
2023-05-02T06:14:11.430Z,14.85
2023-05-02T06:16:38.174Z,14.85
2023-05-02T06:19:04.802Z,13.63
2023-05-02T06:21:31.458Z,13.52
2023-05-02T06:23:58.254Z,13.38
2023-05-02T06:26:24.816Z,13.60
2023-05-02T06:28:51.494Z,13.82
2023-05-02T06:31:18.320Z,12.88
2023-05-02T06:33:44.851Z,11.57
2023-05-02T06:36:12.692Z,13.32
2023-05-02T06:38:39.193Z,12.77
2023-05-02T06:41:05.767Z,13.20
2023-05-02T06:43:32.901Z,13.27
2023-05-02T06:46:01.284Z,12.00
2023-05-02T06:48:28.080Z,12.85
2023-05-02T06:50:54.674Z,12.50
2023-05-02T06:53:24.112Z,11.93
2023-05-02T06:55:50.848Z,12.52
2023-05-02T06:58:21.122Z,12.27
2023-05-02T07:00:50.897Z,12.15
2023-05-02T07:03:17.658Z,12.38
2023-05-02T07:05:44.404Z,10.75
2023-05-02T07:08:11.518Z,13.13
2023-05-02T07:10:40.850Z,11.18
2023-05-02T07:13:08.782Z,12.30
2023-05-02T07:15:35.210Z,12.75
2023-05-02T07:18:04.985Z,12.52
2023-05-02T07:20:31.611Z,13.23
2023-05-02T07:23:04.629Z,14.15
2023-05-02T07:25:31.234Z,13.40
2023-05-02T07:27:57.946Z,14.00
2023-05-02T07:30:24.436Z,14.30
2023-05-02T07:32:51.236Z,12.48
2023-05-02T07:35:18.254Z,13.05
2023-05-02T07:37:44.787Z,12.40
2023-05-02T07:40:11.518Z,13.27
2023-05-02T07:42:38.129Z,12.85
2023-05-02T07:45:05.183Z,12.75
2023-05-02T07:47:35.017Z,12.98
2023-05-02T07:50:03.081Z,12.02
2023-05-02T07:52:33.187Z,12.18
2023-05-02T07:54:59.758Z,11.38
2023-05-02T07:58:01.243Z,11.95
2023-05-02T08:00:30.891Z,10.13
2023-05-02T08:02:59.684Z,10.10
2023-05-02T08:05:27.687Z,9.88
2023-05-02T08:07:56.449Z,10.40
2023-05-02T08:10:24.367Z,9.07
2023-05-02T08:12:51.113Z,9.10
2023-05-02T08:15:17.580Z,8.93
2023-05-02T08:17:44.134Z,8.90
2023-05-02T08:20:11.107Z,8.50
2023-05-02T08:22:37.893Z,7.75
2023-05-02T08:25:07.865Z,8.40
2023-05-02T08:27:35.522Z,8.65
2023-05-02T08:30:05.031Z,8.73
2023-05-02T08:32:32.937Z,9.80
2023-05-02T08:35:01.022Z,8.70
2023-05-02T08:37:27.529Z,9.40
2023-05-02T08:39:54.336Z,10.23
2023-05-02T08:42:25.010Z,10.45
2023-05-02T08:44:54.453Z,10.27
2023-05-02T08:47:23.008Z,9.65
2023-05-02T08:49:50.507Z,10.30
2023-05-02T08:52:23.399Z,11.10
2023-05-02T08:54:57.054Z,11.50
2023-05-02T08:57:23.542Z,10.90
2023-05-02T08:59:55.249Z,11.27
2023-05-02T09:02:52.508Z,10.52
2023-05-02T09:05:23.962Z,11.57
2023-05-02T09:07:51.962Z,11.27
2023-05-02T09:10:18.677Z,12.43
2023-05-02T09:12:45.388Z,12.13
2023-05-02T09:15:21.523Z,12.63
2023-05-02T09:17:50.188Z,13.98
2023-05-02T09:20:17.421Z,13.43
2023-05-02T09:22:52.471Z,14.18
2023-05-02T09:25:22.520Z,13.68
2023-05-02T09:27:56.796Z,13.82
2023-05-02T09:30:25.395Z,14.70
2023-05-02T09:32:55.899Z,14.00
2023-05-02T09:35:30.682Z,14.00
2023-05-02T09:37:59.457Z,12.43
2023-05-02T09:40:27.839Z,12.73
2023-05-02T09:42:55.884Z,12.48
2023-05-02T09:45:24.781Z,13.27
2023-05-02T09:47:59.327Z,14.10
2023-05-02T09:50:37.670Z,13.02
2023-05-02T09:53:13.441Z,13.57
2023-05-02T09:55:43.098Z,13.20
2023-05-02T09:58:24.084Z,12.18
2023-05-02T10:00:54.801Z,14.10
2023-05-02T10:03:26.667Z,14.15
2023-05-02T10:05:56.574Z,13.20
2023-05-02T10:08:28.296Z,13.93
2023-05-02T10:10:57.540Z,13.77
2023-05-02T10:13:27.308Z,12.95
2023-05-02T10:16:02.794Z,12.95
2023-05-02T10:18:40.914Z,12.27
2023-05-02T10:21:27.921Z,11.20
2023-05-02T10:23:54.937Z,9.50
2023-05-02T10:26:26.362Z,9.00
2023-05-02T10:28:56.371Z,7.97
2023-05-02T10:31:23.150Z,6.90
2023-05-02T10:33:52.342Z,4.68
2023-05-02T10:36:23.610Z,4.72
2023-05-02T10:38:51.170Z,5.25
2023-05-02T10:41:26.964Z,5.80
2023-05-02T10:43:54.043Z,4.90
2023-05-02T10:46:37.410Z,4.47
2023-05-02T10:49:11.526Z,4.78
2023-05-02T10:51:43.549Z,4.15
2023-05-02T10:54:20.755Z,3.92
2023-05-02T10:57:05.946Z,3.75
2023-05-02T10:59:37.301Z,2.53
2023-05-02T11:02:07.142Z,2.35
2023-05-02T11:05:07.219Z,2.03
2023-05-02T11:07:36.207Z,2.83
2023-05-02T11:10:18.198Z,3.58
2023-05-02T11:12:49.152Z,3.50
2023-05-02T11:15:38.510Z,3.45
2023-05-02T11:18:12.564Z,3.20
2023-05-02T11:21:38.937Z,3.53
2023-05-02T11:24:38.844Z,3.45
2023-05-02T11:27:30.526Z,3.38
2023-05-02T11:29:58.915Z,3.22
2023-05-02T11:32:46.621Z,3.10
2023-05-02T11:35:18.913Z,2.97
2023-05-02T11:37:59.320Z,3.58
2023-05-02T11:40:27.609Z,3.55
2023-05-02T11:42:54.746Z,3.20
2023-05-02T11:45:21.584Z,3.08
2023-05-02T11:47:49.776Z,2.78
2023-05-02T11:50:16.934Z,2.90
2023-05-02T11:52:45.384Z,2.40
2023-05-02T11:55:14.347Z,1.80
2023-05-02T11:57:41.246Z,1.70
2023-05-02T12:00:08.462Z,1.80
2023-05-02T12:02:45.715Z,2.15
2023-05-02T12:05:14.169Z,2.30
2023-05-02T12:07:45.939Z,2.17
2023-05-02T12:10:13.782Z,2.50
2023-05-02T12:12:44.848Z,2.22
2023-05-02T12:15:12.704Z,2.22
2023-05-02T12:17:42.191Z,2.47
2023-05-02T12:20:11.078Z,2.33
2023-05-02T12:22:38.033Z,2.70
2023-05-02T12:25:05.742Z,2.67
2023-05-02T12:27:33.428Z,2.55
2023-05-02T12:30:00.815Z,2.10
2023-05-02T12:32:32.356Z,2.30
2023-05-02T12:35:00.302Z,2.58
2023-05-02T12:37:27.657Z,2.22
2023-05-02T12:39:55.716Z,2.30
2023-05-02T12:42:24.546Z,2.65
2023-05-02T12:44:54.238Z,2.30
2023-05-02T12:47:22.899Z,2.70
2023-05-02T12:49:52.920Z,3.10
2023-05-02T12:52:21.041Z,2.70
2023-05-02T12:54:47.722Z,3.17
2023-05-02T12:57:24.888Z,3.00
2023-05-02T12:59:58.797Z,3.47
2023-05-02T13:02:25.973Z,2.83
2023-05-02T13:04:52.870Z,3.50
2023-05-02T13:07:19.577Z,3.33
2023-05-02T13:09:46.054Z,3.10
2023-05-02T13:12:12.836Z,3.25
2023-05-02T13:14:39.453Z,3.20
2023-05-02T13:17:08.664Z,3.35
2023-05-02T13:19:35.453Z,2.83
2023-05-02T13:22:02.003Z,3.03
2023-05-02T13:24:28.506Z,3.40
2023-05-02T13:26:54.906Z,3.33
2023-05-02T13:29:21.361Z,3.30
2023-05-02T13:31:48.539Z,2.97
2023-05-02T13:34:16.288Z,3.72
2023-05-02T13:36:46.280Z,4.00
2023-05-02T13:39:13.913Z,3.70
2023-05-02T13:41:40.642Z,4.07
2023-05-02T13:44:07.116Z,3.88
2023-05-02T13:46:36.760Z,4.45
2023-05-02T13:49:04.262Z,4.78
2023-05-02T13:51:33.055Z,4.38
2023-05-02T13:54:04.192Z,4.93
2023-05-02T13:56:31.801Z,4.43
2023-05-02T13:58:58.417Z,3.70
2023-05-02T14:01:26.900Z,3.78
2023-05-02T14:03:53.734Z,3.60
2023-05-02T14:06:20.405Z,3.70
2023-05-02T14:08:46.972Z,3.85
2023-05-02T14:11:13.435Z,3.80
2023-05-02T14:13:39.939Z,3.83
2023-05-02T14:16:06.507Z,3.50
2023-05-02T14:23:54.445Z,4.20
2023-05-02T14:26:21.326Z,4.35
2023-05-02T14:28:47.923Z,3.70
2023-05-02T14:31:16.518Z,3.90
2023-05-02T14:33:43.425Z,3.45
2023-05-02T14:36:10.190Z,3.40
2023-05-02T14:38:38.715Z,3.35
2023-05-02T14:41:14.803Z,3.72
2023-05-02T14:43:43.970Z,3.50
2023-05-02T14:46:10.518Z,3.30
2023-05-02T14:48:37.134Z,3.60
2023-05-02T14:51:04.815Z,3.25
2023-05-02T14:53:34.176Z,2.90
2023-05-02T14:56:00.794Z,2.90
2023-05-02T14:58:34.711Z,2.60
2023-05-02T15:01:03.315Z,2.65
2023-05-02T15:03:30.480Z,3.00
2023-05-02T15:05:57.498Z,2.70
2023-05-02T15:08:25.409Z,2.40
2023-05-02T15:10:51.919Z,2.00
2023-05-02T15:13:18.781Z,2.35
2023-05-02T15:15:47.007Z,2.70
2023-05-02T15:18:13.701Z,2.80
2023-05-02T15:20:40.959Z,2.53
2023-05-02T15:23:07.517Z,2.38
2023-05-02T15:25:34.096Z,2.30
2023-05-02T15:28:02.482Z,2.28
2023-05-02T15:30:28.877Z,3.97
2023-05-02T15:32:55.630Z,4.28
2023-05-02T15:35:22.226Z,2.92
2023-05-02T15:37:50.597Z,2.40
2023-05-02T15:40:17.155Z,2.38
2023-05-02T15:42:43.728Z,2.20
2023-05-02T15:45:16.235Z,2.60
2023-05-02T15:47:42.830Z,2.70
2023-05-02T15:50:11.046Z,2.40
2023-05-02T15:52:37.474Z,2.50
2023-05-02T15:55:05.129Z,2.40
2023-05-02T15:57:31.615Z,2.35
2023-05-02T15:59:58.325Z,2.47
2023-05-02T16:02:25.043Z,2.30
2023-05-02T16:04:51.867Z,2.15
2023-05-02T16:07:18.434Z,2.20
2023-05-02T16:09:46.357Z,2.53
2023-05-02T16:12:13.639Z,2.20
2023-05-02T16:14:40.086Z,2.17
2023-05-02T16:17:06.641Z,2.15
2023-05-02T16:19:33.164Z,2.53
2023-05-02T16:22:00.297Z,2.05
2023-05-02T16:24:27.025Z,2.30
2023-05-02T16:26:55.758Z,2.17
2023-05-02T16:29:22.551Z,2.40
2023-05-02T16:31:49.000Z,2.25
2023-05-02T16:34:15.553Z,2.10
2023-05-02T16:36:42.350Z,2.22
2023-05-02T16:39:10.745Z,2.10
2023-05-02T16:41:37.725Z,2.10
2023-05-02T16:44:04.688Z,2.42
2023-05-02T16:46:31.862Z,2.20
2023-05-02T16:48:58.757Z,2.13
2023-05-02T16:51:25.189Z,2.10
2023-05-02T16:53:51.673Z,2.30
2023-05-02T16:56:18.234Z,2.30
2023-05-02T16:58:44.909Z,2.58
2023-05-02T17:01:11.819Z,2.25
2023-05-02T17:03:41.876Z,1.92
2023-05-02T17:06:08.699Z,2.20
2023-05-02T17:08:35.755Z,2.00
2023-05-02T17:11:02.488Z,1.90
2023-05-02T17:13:30.070Z,1.63
2023-05-02T17:15:57.545Z,1.80
2023-05-02T17:18:24.581Z,2.00
2023-05-02T17:20:51.551Z,1.83
2023-05-02T17:23:18.302Z,2.03
2023-05-02T17:25:45.124Z,1.70
2023-05-02T17:28:12.101Z,2.15
2023-05-02T17:30:39.031Z,2.30
2023-05-02T17:33:06.034Z,2.15
2023-05-02T17:35:32.814Z,2.20
2023-05-02T17:37:59.457Z,2.20
2023-05-02T17:40:26.971Z,2.13
2023-05-02T17:42:53.559Z,2.17
2023-05-02T17:45:20.260Z,2.40
2023-05-02T17:47:47.248Z,2.70
2023-05-02T17:50:19.943Z,2.53
2023-05-02T17:52:46.667Z,2.40
2023-05-02T17:55:13.317Z,2.60
2023-05-02T17:57:43.258Z,2.60
2023-05-02T18:00:10.541Z,2.63
2023-05-02T18:02:37.916Z,3.25
2023-05-02T18:05:07.081Z,2.67
2023-05-02T18:07:34.872Z,2.40
2023-05-02T18:10:04.202Z,2.50
2023-05-02T18:12:33.603Z,2.45
2023-05-02T18:15:02.911Z,3.00
2023-05-02T18:17:29.899Z,3.50
2023-05-02T18:19:56.606Z,4.18
2023-05-02T18:22:23.102Z,3.90
2023-05-02T18:24:50.100Z,2.88
2023-05-02T18:27:17.508Z,3.00
2023-05-02T18:29:44.012Z,3.13
2023-05-02T18:32:10.542Z,3.22
2023-05-02T18:34:38.743Z,3.33
2023-05-02T18:37:05.914Z,3.30
2023-05-02T18:39:34.929Z,4.43
2023-05-02T18:42:05.585Z,3.95
2023-05-02T18:44:32.137Z,4.03
2023-05-02T18:46:59.357Z,3.42
2023-05-02T18:49:26.275Z,3.35
2023-05-02T18:51:54.688Z,3.55
2023-05-02T18:54:23.324Z,3.40
2023-05-02T18:56:50.048Z,3.83
2023-05-02T18:59:16.729Z,4.13
2023-05-02T19:01:50.245Z,3.85
2023-05-02T19:04:16.766Z,4.15
2023-05-02T19:06:43.336Z,4.45
2023-05-02T19:09:09.893Z,3.95
2023-05-02T19:11:36.641Z,4.63
2023-05-02T19:14:03.652Z,4.20
2023-05-02T19:16:31.716Z,4.35
2023-05-02T19:18:59.445Z,4.93
2023-05-02T19:21:26.174Z,4.35
2023-05-02T19:23:52.859Z,4.80
2023-05-02T19:26:19.969Z,4.45
2023-05-02T19:28:46.550Z,4.32
2023-05-02T19:31:18.418Z,4.60
2023-05-02T19:33:52.163Z,4.38
2023-05-02T19:36:20.100Z,4.72
2023-05-02T19:38:52.212Z,4.70
2023-05-02T19:41:18.914Z,4.78
2023-05-02T19:43:45.833Z,4.95
2023-05-02T19:46:14.242Z,4.90
2023-05-02T19:48:40.761Z,5.05
2023-05-02T19:51:07.578Z,4.43
2023-05-02T19:53:35.991Z,5.47
2023-05-02T19:56:10.589Z,4.95
2023-05-02T19:58:37.146Z,5.00
2023-05-02T20:01:03.816Z,4.80
2023-05-02T20:03:30.708Z,4.72
2023-05-02T20:05:58.467Z,4.70
2023-05-02T20:08:27.948Z,4.50
2023-05-02T20:10:55.726Z,4.43
2023-05-02T20:13:22.210Z,4.50
2023-05-02T20:15:52.946Z,5.05
2023-05-02T20:18:20.432Z,5.07
2023-05-02T20:20:46.963Z,4.95
2023-05-02T20:23:13.758Z,4.55
2023-05-02T20:25:41.896Z,5.20
2023-05-02T20:28:09.279Z,4.93
2023-05-02T20:30:35.893Z,5.35
2023-05-02T20:33:13.912Z,4.78
2023-05-02T20:35:44.808Z,4.80
2023-05-02T20:38:12.772Z,5.05
2023-05-02T20:40:40.658Z,5.10
2023-05-02T20:43:09.904Z,4.55
2023-05-02T20:45:36.361Z,5.07
2023-05-02T20:48:02.933Z,4.80
2023-05-02T20:50:31.548Z,4.95
2023-05-02T20:52:58.231Z,5.00
2023-05-02T20:55:24.833Z,4.28
2023-05-02T20:57:53.124Z,4.97
2023-05-02T21:00:22.462Z,4.95
2023-05-02T21:02:49.330Z,5.00
2023-05-02T21:05:16.123Z,4.88
2023-05-02T21:07:42.971Z,4.60
2023-05-02T21:10:10.052Z,4.32
2023-05-02T21:12:36.681Z,4.93
2023-05-02T21:15:06.994Z,4.72
2023-05-02T21:17:33.525Z,4.88
2023-05-02T21:20:00.212Z,4.30
2023-05-02T21:22:27.044Z,4.38
2023-05-02T21:24:53.513Z,4.95
2023-05-02T21:27:20.121Z,5.05
2023-05-02T21:29:46.844Z,5.40
2023-05-02T21:32:13.788Z,5.45
2023-05-02T21:34:41.007Z,5.60
2023-05-02T21:37:07.492Z,5.90
2023-05-02T21:39:34.016Z,5.60
2023-05-02T21:42:01.493Z,6.05
2023-05-02T21:44:28.166Z,5.95
2023-05-02T21:46:54.871Z,5.57
2023-05-02T21:49:21.836Z,5.80
2023-05-02T21:51:49.288Z,6.07
2023-05-02T21:54:15.802Z,5.78
2023-05-02T21:56:43.028Z,6.10
2023-05-02T21:59:10.053Z,6.93
2023-05-02T22:01:36.562Z,6.10
2023-05-02T22:04:02.999Z,5.70
2023-05-02T22:06:31.480Z,6.40
2023-05-02T22:08:58.061Z,6.30
2023-05-02T22:11:25.760Z,6.15
2023-05-02T22:13:54.378Z,6.90
2023-05-02T22:16:21.427Z,6.50
2023-05-02T22:18:52.248Z,6.10
2023-05-02T22:21:18.929Z,6.60
2023-05-02T22:23:45.542Z,7.03
2023-05-02T22:26:12.049Z,6.72
2023-05-02T22:28:38.504Z,6.97
2023-05-02T22:31:05.415Z,6.70
2023-05-02T22:33:33.425Z,6.47
2023-05-02T22:35:59.846Z,6.88
2023-05-02T22:38:26.386Z,6.88
2023-05-02T22:40:52.806Z,7.20
2023-05-02T22:43:19.406Z,6.75
2023-05-02T22:45:46.558Z,6.53
2023-05-02T22:48:13.120Z,6.72
2023-05-02T22:50:40.164Z,6.93
2023-05-02T22:53:09.398Z,6.57
2023-05-02T22:55:38.918Z,6.57
2023-05-02T22:58:11.743Z,6.75
2023-05-02T23:00:39.550Z,7.05
2023-05-02T23:03:06.163Z,7.18
2023-05-02T23:05:32.732Z,7.13
2023-05-02T23:07:59.417Z,7.38
2023-05-02T23:10:25.949Z,7.13
2023-05-02T23:12:52.453Z,7.50
2023-05-02T23:15:20.881Z,7.28
2023-05-02T23:17:47.449Z,7.30
2023-05-02T23:20:14.409Z,7.32
2023-05-02T23:22:45.753Z,7.57
2023-05-02T23:25:13.084Z,7.05
2023-05-02T23:27:39.655Z,7.72
2023-05-02T23:30:08.313Z,8.30
2023-05-02T23:32:35.193Z,7.80
2023-05-02T23:35:01.935Z,8.05
2023-05-02T23:37:29.100Z,8.20
2023-05-02T23:39:58.092Z,8.90
2023-05-02T23:42:24.826Z,8.45
2023-05-02T23:44:53.689Z,8.80
2023-05-02T23:47:20.146Z,8.27
2023-05-02T23:49:46.547Z,8.13
2023-05-02T23:52:13.080Z,8.48
2023-05-02T23:54:41.485Z,9.50
2023-05-02T23:57:09.296Z,8.80
2023-05-02T23:59:36.177Z,9.05
